createdAt,value
2023-03-31T00:01:08.460Z,100943.88
2023-03-31T00:03:38.931Z,100940.25
2023-03-31T00:06:07.069Z,100940.00
2023-03-31T00:08:37.434Z,100941.78
2023-03-31T00:11:09.680Z,100942.53
2023-03-31T00:13:37.724Z,100931.91
2023-03-31T00:16:10.407Z,100933.53
2023-03-31T00:18:38.147Z,100939.94
2023-03-31T00:21:14.796Z,100922.28
2023-03-31T00:23:42.527Z,100923.16
2023-03-31T00:26:10.023Z,100923.03
2023-03-31T00:28:37.496Z,100911.84
2023-03-31T00:31:05.378Z,100899.06
2023-03-31T00:33:32.967Z,100898.34
2023-03-31T00:36:02.480Z,100901.84
2023-03-31T00:38:30.398Z,100899.47
2023-03-31T00:40:59.470Z,100894.25
2023-03-31T00:43:32.454Z,100902.97
2023-03-31T00:46:23.283Z,100890.47
2023-03-31T00:48:54.285Z,100893.72
2023-03-31T00:51:23.004Z,100891.13
2023-03-31T00:53:59.867Z,100879.66
2023-03-31T00:56:31.895Z,100874.59
2023-03-31T00:59:03.784Z,100879.94
2023-03-31T01:01:31.761Z,100884.88
2023-03-31T01:03:59.672Z,100873.28
2023-03-31T01:06:31.105Z,100873.38
2023-03-31T01:08:58.951Z,100855.78
2023-03-31T01:11:30.634Z,100856.00
2023-03-31T01:13:58.886Z,100863.00
2023-03-31T01:16:26.346Z,100865.47
2023-03-31T01:18:57.568Z,100863.53
2023-03-31T01:21:47.378Z,100861.00
2023-03-31T01:25:01.694Z,100849.00
2023-03-31T01:27:48.936Z,100847.34
2023-03-31T01:30:40.819Z,100855.66
2023-03-31T01:33:23.880Z,100843.47
2023-03-31T01:35:54.339Z,100844.44
2023-03-31T01:38:33.911Z,100839.44
2023-03-31T01:41:48.092Z,100841.66
2023-03-31T01:44:46.709Z,100851.94
2023-03-31T01:47:41.422Z,100848.31
2023-03-31T01:50:16.486Z,100840.19
2023-03-31T01:52:51.671Z,100837.25
2023-03-31T01:55:24.553Z,100839.59
2023-03-31T01:58:19.368Z,100826.47
2023-03-31T02:00:58.396Z,100813.66
2023-03-31T02:03:33.166Z,100814.22
2023-03-31T02:06:09.336Z,100809.59
2023-03-31T02:08:43.434Z,100772.25
2023-03-31T02:11:11.282Z,100787.47
2023-03-31T02:13:41.927Z,100789.31
2023-03-31T02:16:19.147Z,100780.59
2023-03-31T02:18:48.390Z,100792.53
2023-03-31T02:21:16.979Z,100786.16
2023-03-31T02:23:45.911Z,100791.22
2023-03-31T02:26:18.997Z,100784.59
2023-03-31T02:28:47.065Z,100789.91
2023-03-31T02:31:24.107Z,100803.47
2023-03-31T02:33:52.218Z,100784.97
2023-03-31T02:36:21.627Z,100790.94
2023-03-31T02:38:55.540Z,100793.28
2023-03-31T02:41:23.669Z,100797.31
2023-03-31T02:43:51.323Z,100777.03
2023-03-31T02:46:19.290Z,100787.72
2023-03-31T02:48:54.814Z,100779.50
2023-03-31T02:51:55.024Z,100793.78
2023-03-31T02:54:43.806Z,100794.13
2023-03-31T02:57:49.998Z,100794.50
2023-03-31T03:00:42.010Z,100799.97
2023-03-31T03:03:51.668Z,100805.09
2023-03-31T03:06:53.976Z,100803.53
2023-03-31T03:09:32.801Z,100805.22
2023-03-31T03:12:09.025Z,100795.47
2023-03-31T03:14:42.587Z,100792.56
2023-03-31T03:17:32.321Z,100785.78
2023-03-31T03:20:01.996Z,100782.03
2023-03-31T03:22:29.622Z,100780.38
2023-03-31T03:24:57.552Z,100769.97
2023-03-31T03:27:25.146Z,100766.69
2023-03-31T03:29:52.746Z,100768.16
2023-03-31T03:32:20.464Z,100755.81
2023-03-31T03:34:47.969Z,100744.22
2023-03-31T03:37:15.418Z,100759.31
2023-03-31T03:39:43.001Z,100765.06
2023-03-31T03:42:10.657Z,100748.31
2023-03-31T03:44:38.111Z,100750.38
2023-03-31T03:47:05.943Z,100740.03
2023-03-31T03:49:33.458Z,100751.00
2023-03-31T03:52:01.188Z,100751.13
2023-03-31T03:54:28.693Z,100737.25
2023-03-31T03:56:56.282Z,100737.44
2023-03-31T03:59:23.973Z,100744.03
2023-03-31T04:01:52.884Z,100722.69
2023-03-31T04:04:20.518Z,100712.81
2023-03-31T04:06:47.892Z,100735.88
2023-03-31T04:09:15.717Z,100739.22
2023-03-31T04:11:43.434Z,100742.88
2023-03-31T04:14:10.825Z,100734.03
2023-03-31T04:16:38.578Z,100742.72
2023-03-31T04:19:06.943Z,100741.19
2023-03-31T04:21:37.356Z,100741.28
2023-03-31T04:24:05.194Z,100737.66
2023-03-31T04:26:43.922Z,100717.25
2023-03-31T04:29:13.338Z,100720.28
2023-03-31T04:31:44.493Z,100722.19
2023-03-31T04:34:15.018Z,100726.91
2023-03-31T04:36:47.900Z,100732.09
2023-03-31T04:39:30.914Z,100742.50
2023-03-31T04:41:59.717Z,100729.50
2023-03-31T04:44:27.623Z,100711.44
2023-03-31T04:46:56.183Z,100718.31
2023-03-31T04:49:23.769Z,100703.94
2023-03-31T04:51:51.238Z,100701.03
2023-03-31T04:54:18.914Z,100694.28
2023-03-31T04:56:46.669Z,100706.25
2023-03-31T04:59:14.223Z,100714.53
2023-03-31T05:01:45.032Z,100717.06
2023-03-31T05:04:12.664Z,100714.53
2023-03-31T05:06:40.238Z,100730.03
2023-03-31T05:09:09.813Z,100704.66
2023-03-31T05:11:38.380Z,100711.88
2023-03-31T05:14:06.184Z,100700.78
2023-03-31T05:16:33.727Z,100708.31
2023-03-31T05:19:01.304Z,100696.41
2023-03-31T05:21:30.721Z,100706.44
2023-03-31T05:23:58.414Z,100702.97
2023-03-31T05:26:26.240Z,100698.56
2023-03-31T05:28:54.550Z,100700.38
2023-03-31T05:31:22.353Z,100696.72
2023-03-31T05:33:50.074Z,100675.59
2023-03-31T05:36:18.730Z,100675.22
2023-03-31T05:38:47.719Z,100674.63
2023-03-31T05:41:16.968Z,100680.69
2023-03-31T05:43:44.630Z,100683.88
2023-03-31T05:46:12.394Z,100690.75
2023-03-31T05:48:39.924Z,100695.09
2023-03-31T05:51:08.658Z,100696.09
2023-03-31T05:53:36.244Z,100689.31
2023-03-31T05:56:07.328Z,100700.16
2023-03-31T05:58:36.400Z,100682.31
2023-03-31T06:01:07.364Z,100694.72
2023-03-31T06:03:37.229Z,100669.53
2023-03-31T06:06:05.624Z,100670.22
2023-03-31T06:08:33.169Z,100680.47
2023-03-31T06:11:04.231Z,100686.44
2023-03-31T06:13:32.126Z,100670.56
2023-03-31T06:16:00.956Z,100669.00
2023-03-31T06:18:30.547Z,100667.31
2023-03-31T06:20:58.960Z,100672.66
2023-03-31T06:23:27.276Z,100675.13
2023-03-31T06:25:55.064Z,100650.53
2023-03-31T06:28:22.640Z,100664.06
2023-03-31T06:30:50.269Z,100661.38
2023-03-31T06:33:17.773Z,100654.84
2023-03-31T06:35:45.796Z,100648.66
2023-03-31T06:38:13.565Z,100646.88
2023-03-31T06:40:42.622Z,100643.53
2023-03-31T06:43:10.456Z,100631.41
2023-03-31T06:45:38.107Z,100638.19
2023-03-31T06:48:06.440Z,100624.41
2023-03-31T06:50:33.985Z,100622.41
2023-03-31T06:53:01.733Z,100621.00
2023-03-31T06:55:29.293Z,100633.63
2023-03-31T06:57:56.797Z,100595.22
2023-03-31T07:00:26.010Z,100625.69
2023-03-31T07:02:54.591Z,100630.88
2023-03-31T07:05:27.558Z,100636.22
2023-03-31T07:07:57.137Z,100626.34
2023-03-31T07:10:27.307Z,100622.16
2023-03-31T07:12:55.077Z,100586.28
2023-03-31T07:15:23.268Z,100587.13
2023-03-31T07:17:51.286Z,100595.28
2023-03-31T07:20:20.508Z,100611.63
2023-03-31T07:22:49.172Z,100585.72
2023-03-31T07:25:17.840Z,100600.50
2023-03-31T07:27:45.397Z,100606.13
2023-03-31T07:30:16.522Z,100591.06
2023-03-31T07:32:47.038Z,100580.81
2023-03-31T07:35:15.026Z,100587.81
2023-03-31T07:37:45.460Z,100594.16
2023-03-31T07:40:21.723Z,100587.81
2023-03-31T07:42:52.255Z,100594.47
2023-03-31T07:45:22.965Z,100587.81
2023-03-31T07:47:51.148Z,100583.75
2023-03-31T07:50:19.457Z,100608.72
2023-03-31T07:52:48.629Z,100575.72
2023-03-31T07:55:16.805Z,100580.38
2023-03-31T07:57:46.238Z,100578.75
2023-03-31T08:00:15.896Z,100575.34
2023-03-31T08:02:44.630Z,100574.28
2023-03-31T08:05:14.418Z,100579.28
2023-03-31T08:07:44.957Z,100583.97
2023-03-31T08:10:21.425Z,100585.63
2023-03-31T08:12:48.921Z,100592.84
2023-03-31T08:15:16.859Z,100601.56
2023-03-31T08:17:44.900Z,100557.56
2023-03-31T08:20:12.980Z,100549.81
2023-03-31T08:22:41.340Z,100553.72
2023-03-31T08:25:09.473Z,100557.72
2023-03-31T08:27:39.856Z,100570.63
2023-03-31T08:30:10.758Z,100550.06
2023-03-31T08:32:46.512Z,100570.47
2023-03-31T08:35:14.320Z,100552.44
2023-03-31T08:37:41.839Z,100564.94
2023-03-31T08:40:17.054Z,100574.94
2023-03-31T08:42:53.734Z,100552.97
2023-03-31T08:45:26.430Z,100548.88
2023-03-31T08:47:59.388Z,100560.66
2023-03-31T08:50:36.931Z,100543.03
2023-03-31T08:53:09.516Z,100532.91
2023-03-31T08:55:46.751Z,100539.50
2023-03-31T08:58:14.209Z,100541.72
2023-03-31T09:00:51.933Z,100546.09
2023-03-31T09:03:26.187Z,100539.81
2023-03-31T09:06:02.096Z,100547.06
2023-03-31T09:08:38.323Z,100554.81
2023-03-31T09:11:30.320Z,100548.22
2023-03-31T09:14:21.028Z,100559.91
2023-03-31T09:16:57.040Z,100560.34
2023-03-31T09:19:32.268Z,100546.56
2023-03-31T09:22:01.753Z,100544.72
2023-03-31T09:24:33.476Z,100516.97
2023-03-31T09:27:05.693Z,100526.94
2023-03-31T09:29:52.118Z,100524.63
2023-03-31T09:32:29.299Z,100524.97
2023-03-31T09:35:21.669Z,100502.06
2023-03-31T09:37:49.800Z,100500.25
2023-03-31T09:40:20.213Z,100517.06
2023-03-31T09:43:05.393Z,100483.19
2023-03-31T09:45:34.144Z,100476.31
2023-03-31T09:48:07.022Z,100500.25
2023-03-31T09:50:44.598Z,100486.44
2023-03-31T09:53:30.231Z,100499.56
2023-03-31T09:56:03.675Z,100475.66
2023-03-31T09:58:31.856Z,100485.56
2023-03-31T10:01:09.598Z,100481.13
2023-03-31T10:03:52.731Z,100456.69
2023-03-31T10:06:21.491Z,100461.59
2023-03-31T10:08:56.649Z,100452.34
2023-03-31T10:11:25.154Z,100439.13
2023-03-31T10:14:14.869Z,100458.22
2023-03-31T10:16:54.461Z,100439.56
2023-03-31T10:19:27.912Z,100443.06
2023-03-31T10:21:58.738Z,100428.44
2023-03-31T10:24:27.812Z,100435.16
2023-03-31T10:26:57.575Z,100417.44
2023-03-31T10:29:32.510Z,100418.69
2023-03-31T10:32:27.308Z,100423.53
2023-03-31T10:34:56.839Z,100430.88
2023-03-31T10:37:28.182Z,100434.81
2023-03-31T10:40:01.996Z,100421.50
2023-03-31T10:42:29.745Z,100409.91
2023-03-31T10:45:35.826Z,100411.25
2023-03-31T10:48:05.630Z,100423.97
2023-03-31T10:50:36.176Z,100417.16
2023-03-31T10:53:06.513Z,100412.31
2023-03-31T10:55:46.387Z,100403.63
2023-03-31T10:58:19.933Z,100407.66
2023-03-31T11:00:59.284Z,100398.91
2023-03-31T11:03:30.413Z,100393.50
2023-03-31T11:06:28.387Z,100379.69
2023-03-31T11:09:16.192Z,100345.78
2023-03-31T11:12:08.169Z,100356.97
2023-03-31T11:14:47.882Z,100344.28
2023-03-31T11:17:36.402Z,100334.03
2023-03-31T11:20:30.297Z,100340.94
2023-03-31T11:23:18.629Z,100335.69
2023-03-31T11:26:12.238Z,100313.84
2023-03-31T11:29:05.971Z,100310.25
2023-03-31T11:31:43.967Z,100303.41
2023-03-31T11:34:35.935Z,100279.56
2023-03-31T11:37:35.583Z,100283.44
2023-03-31T11:40:10.194Z,100283.19
2023-03-31T11:43:17.013Z,100255.72
2023-03-31T11:46:13.496Z,100226.41
2023-03-31T11:48:47.351Z,100207.13
2023-03-31T11:51:26.637Z,100240.44
2023-03-31T11:53:58.734Z,100233.09
2023-03-31T11:56:36.739Z,100213.41
2023-03-31T11:59:07.796Z,100231.19
2023-03-31T12:01:44.764Z,100210.41
2023-03-31T12:04:23.717Z,100199.75
2023-03-31T12:06:55.595Z,100200.59
2023-03-31T12:09:38.871Z,100189.91
2023-03-31T12:12:29.631Z,100197.56
2023-03-31T12:15:11.416Z,100166.53
2023-03-31T12:17:43.775Z,100191.44
2023-03-31T12:20:34.579Z,100177.34
2023-03-31T12:23:06.558Z,100179.72
2023-03-31T12:25:49.813Z,100166.88
2023-03-31T12:28:19.818Z,100147.34
2023-03-31T12:30:53.123Z,100138.19
2023-03-31T12:33:31.540Z,100154.31
2023-03-31T12:36:36.399Z,100146.88
2023-03-31T12:39:16.260Z,100134.88
2023-03-31T12:42:29.313Z,100135.06
2023-03-31T12:45:20.605Z,100122.47
2023-03-31T12:48:03.614Z,100119.38
2023-03-31T12:51:03.910Z,100104.38
2023-03-31T12:54:00.681Z,100110.06
2023-03-31T12:56:28.453Z,100082.94
2023-03-31T12:59:19.327Z,100094.47
2023-03-31T13:02:26.411Z,100066.47
2023-03-31T13:04:54.285Z,100074.41
2023-03-31T13:07:29.217Z,100075.63
2023-03-31T13:09:59.129Z,100065.66
2023-03-31T13:12:31.319Z,100045.25
2023-03-31T13:15:02.136Z,100046.38
2023-03-31T13:17:36.076Z,100031.06
2023-03-31T13:20:28.278Z,100046.69
2023-03-31T13:23:21.151Z,100036.22
2023-03-31T13:25:53.301Z,100007.28
2023-03-31T13:28:24.138Z,100023.34
2023-03-31T13:31:04.054Z,100013.75
2023-03-31T13:33:41.468Z,100020.78
2023-03-31T13:36:34.617Z,100017.31
2023-03-31T13:39:26.993Z,100012.38
2023-03-31T13:42:19.419Z,100008.22
2023-03-31T13:45:19.839Z,99995.13
2023-03-31T13:48:04.205Z,99983.44
2023-03-31T13:50:57.332Z,99981.28
2023-03-31T13:53:48.522Z,99952.44
2023-03-31T13:56:44.872Z,99955.25
2023-03-31T13:59:38.429Z,99973.78
2023-03-31T14:02:37.447Z,99959.84
2023-03-31T14:05:32.505Z,99960.78
2023-03-31T14:08:08.522Z,99958.41
2023-03-31T14:10:38.457Z,99958.13
2023-03-31T14:13:18.941Z,99943.88
2023-03-31T14:15:59.290Z,99932.06
2023-03-31T14:18:30.667Z,99928.53
2023-03-31T14:21:29.769Z,99938.44
2023-03-31T14:24:13.277Z,99939.75
2023-03-31T14:26:53.648Z,99920.88
2023-03-31T14:29:29.547Z,99898.88
2023-03-31T14:31:57.356Z,99917.00
2023-03-31T14:34:42.837Z,99919.59
2023-03-31T14:37:13.923Z,99897.84
2023-03-31T14:39:55.194Z,99872.56
2023-03-31T14:42:27.242Z,99887.84
2023-03-31T14:45:02.224Z,99874.00
2023-03-31T14:47:30.541Z,99875.22
2023-03-31T14:50:16.486Z,99862.88
2023-03-31T14:52:52.508Z,99845.47
2023-03-31T14:55:26.668Z,99850.03
2023-03-31T14:58:01.787Z,99850.72
2023-03-31T15:00:33.456Z,99850.72
2023-03-31T15:03:05.974Z,99842.16
2023-03-31T15:05:36.929Z,99837.34
2023-03-31T15:08:08.404Z,99833.56
2023-03-31T15:10:39.429Z,99827.63
2023-03-31T15:13:15.899Z,99804.03
2023-03-31T15:15:46.306Z,99807.72
2023-03-31T15:18:15.849Z,99799.03
2023-03-31T15:20:45.518Z,99803.81
2023-03-31T15:23:30.894Z,99804.25
2023-03-31T15:26:11.102Z,99805.19
2023-03-31T15:28:56.654Z,99821.28
2023-03-31T15:31:27.177Z,99831.53
2023-03-31T15:33:54.970Z,99831.59
2023-03-31T15:36:23.688Z,99819.94
2023-03-31T15:38:58.097Z,99817.47
2023-03-31T15:41:31.974Z,99823.66
2023-03-31T15:44:08.247Z,99803.69
2023-03-31T15:46:38.917Z,99813.91
2023-03-31T15:49:23.890Z,99783.63
2023-03-31T15:51:53.298Z,99768.13
2023-03-31T15:54:29.672Z,99806.19
2023-03-31T15:57:00.834Z,99782.56
2023-03-31T15:59:41.743Z,99815.34
2023-03-31T16:02:22.511Z,99791.75
2023-03-31T16:04:54.700Z,99803.13
2023-03-31T16:07:27.224Z,99816.72
2023-03-31T16:10:09.531Z,99797.75
2023-03-31T16:12:49.175Z,99814.28
2023-03-31T16:15:25.118Z,99807.13
2023-03-31T16:18:00.292Z,99798.34
2023-03-31T16:20:32.920Z,99793.16
2023-03-31T16:23:01.198Z,99811.59
2023-03-31T16:25:31.633Z,99796.50
2023-03-31T16:28:02.121Z,99802.72
2023-03-31T16:30:40.464Z,99803.53
2023-03-31T16:33:11.265Z,99797.34
2023-03-31T16:35:42.132Z,99794.75
2023-03-31T16:38:13.213Z,99789.63
2023-03-31T16:40:43.315Z,99783.97
2023-03-31T16:43:18.457Z,99791.97
2023-03-31T16:45:48.329Z,99785.72
2023-03-31T16:48:17.679Z,99788.03
2023-03-31T16:50:47.840Z,99791.16
2023-03-31T16:53:20.063Z,99772.38
2023-03-31T16:55:49.891Z,99751.69
2023-03-31T16:58:18.911Z,99749.22
2023-03-31T17:00:47.861Z,99760.22
2023-03-31T17:03:16.715Z,99744.41
2023-03-31T17:05:47.601Z,99716.13
2023-03-31T17:08:15.791Z,99709.19
2023-03-31T17:10:52.343Z,99708.34
2023-03-31T17:13:20.698Z,99704.56
2023-03-31T17:15:49.495Z,99699.56
2023-03-31T17:18:17.492Z,99708.75
2023-03-31T17:20:45.700Z,99730.00
2023-03-31T17:23:13.923Z,99743.72
2023-03-31T17:25:48.451Z,99726.75
2023-03-31T17:28:16.081Z,99735.09
2023-03-31T17:30:44.492Z,99739.06
2023-03-31T17:33:12.691Z,99719.16
2023-03-31T17:35:40.615Z,99711.44
2023-03-31T17:38:09.871Z,99726.03
2023-03-31T17:40:37.872Z,99717.22
2023-03-31T17:43:06.205Z,99704.91
2023-03-31T17:45:34.876Z,99699.00
2023-03-31T17:51:21.346Z,99712.50
2023-03-31T17:53:49.435Z,99711.59
2023-03-31T17:56:17.801Z,99698.81
2023-03-31T17:58:46.847Z,99712.75
2023-03-31T18:01:14.604Z,99712.97
2023-03-31T18:03:42.366Z,99699.38
2023-03-31T18:06:12.937Z,99719.03
2023-03-31T18:08:42.721Z,99739.28
2023-03-31T18:11:10.734Z,99715.91
2023-03-31T18:13:39.187Z,99726.75
2023-03-31T18:16:13.111Z,99729.13
2023-03-31T18:18:42.408Z,99707.88
2023-03-31T18:21:13.184Z,99726.09
2023-03-31T18:23:41.409Z,99699.56
2023-03-31T18:26:12.008Z,99720.78
2023-03-31T18:28:41.141Z,99738.44
2023-03-31T18:31:09.826Z,99738.50
2023-03-31T18:33:38.033Z,99739.72
2023-03-31T18:36:07.844Z,99727.81
2023-03-31T18:38:38.324Z,99753.25
2023-03-31T18:41:06.758Z,99727.63
2023-03-31T18:43:34.798Z,99741.03
2023-03-31T18:46:03.322Z,99726.53
2023-03-31T18:48:30.810Z,99744.75
2023-03-31T18:50:58.520Z,99746.03
2023-03-31T18:53:26.135Z,99728.94
2023-03-31T18:55:59.565Z,99730.22
2023-03-31T18:58:31.348Z,99732.94
2023-03-31T19:01:01.282Z,99728.31
2023-03-31T19:03:29.428Z,99719.81
2023-03-31T19:06:04.779Z,99726.53
2023-03-31T19:08:32.417Z,99717.59
2023-03-31T19:11:11.453Z,99727.03
2023-03-31T19:13:42.141Z,99731.50
2023-03-31T19:16:15.353Z,99727.22
2023-03-31T19:18:43.811Z,99716.19
2023-03-31T19:21:14.992Z,99723.19
2023-03-31T19:23:43.100Z,99715.50
2023-03-31T19:26:16.062Z,99726.31
2023-03-31T19:28:43.809Z,99721.59
2023-03-31T19:31:11.924Z,99690.09
2023-03-31T19:33:39.763Z,99703.69
2023-03-31T19:36:08.085Z,99710.00
2023-03-31T19:38:36.914Z,99711.81
2023-03-31T19:41:06.657Z,99715.81
2023-03-31T19:43:34.627Z,99718.00
2023-03-31T19:46:02.951Z,99715.72
2023-03-31T19:48:36.279Z,99695.50
2023-03-31T19:51:08.579Z,99704.00
2023-03-31T19:53:39.844Z,99714.28
2023-03-31T19:56:16.790Z,99689.38
2023-03-31T19:58:44.710Z,99702.47
2023-03-31T20:01:18.953Z,99700.97
2023-03-31T20:03:46.989Z,99709.53
2023-03-31T20:06:14.941Z,99699.13
2023-03-31T20:08:43.884Z,99663.78
2023-03-31T20:11:14.271Z,99684.56
2023-03-31T20:13:43.230Z,99689.91
2023-03-31T20:16:14.262Z,99682.91
2023-03-31T20:18:47.932Z,99686.06
2023-03-31T20:21:18.383Z,99686.59
2023-03-31T20:23:46.962Z,99667.69
2023-03-31T20:26:17.516Z,99673.38
2023-03-31T20:28:46.801Z,99671.13
2023-03-31T20:31:23.402Z,99666.31
2023-03-31T20:33:53.491Z,99674.66
2023-03-31T20:36:23.808Z,99684.13
2023-03-31T20:38:53.305Z,99684.69
2023-03-31T20:41:24.045Z,99676.91
2023-03-31T20:43:52.130Z,99678.41
2023-03-31T20:46:20.020Z,99684.41
2023-03-31T20:48:51.329Z,99687.63
2023-03-31T20:51:22.143Z,99679.75
2023-03-31T20:53:53.023Z,99685.59
2023-03-31T20:56:23.759Z,99680.41
2023-03-31T20:58:53.591Z,99689.84
2023-03-31T21:01:22.285Z,99674.72
2023-03-31T21:03:53.343Z,99684.28
2023-03-31T21:06:21.004Z,99686.81
2023-03-31T21:08:52.390Z,99674.34
2023-03-31T21:11:20.737Z,99687.38
2023-03-31T21:13:48.899Z,99684.78
2023-03-31T21:16:17.546Z,99681.25
2023-03-31T21:18:45.162Z,99675.63
2023-03-31T21:21:16.032Z,99669.41
2023-03-31T21:23:43.697Z,99652.44
2023-03-31T21:26:14.574Z,99643.06
2023-03-31T21:28:43.181Z,99637.69
2023-03-31T21:31:19.878Z,99612.41
2023-03-31T21:33:47.566Z,99644.72
2023-03-31T21:36:17.995Z,99643.41
2023-03-31T21:38:45.804Z,99656.59
2023-03-31T21:41:19.309Z,99607.53
2023-03-31T21:43:47.249Z,99622.56
2023-03-31T21:46:33.847Z,99633.16
2023-03-31T21:49:02.648Z,99621.06
2023-03-31T21:51:30.087Z,99613.03
2023-03-31T21:53:57.985Z,99594.81
2023-03-31T21:56:27.790Z,99595.00
2023-03-31T21:58:55.674Z,99581.38
2023-03-31T22:01:23.601Z,99576.19
2023-03-31T22:03:52.026Z,99575.63
2023-03-31T22:06:20.127Z,99600.16
2023-03-31T22:08:47.649Z,99614.81
2023-03-31T22:11:16.086Z,99608.63
2023-03-31T22:13:43.704Z,99613.13
2023-03-31T22:16:17.671Z,99602.34
2023-03-31T22:18:47.275Z,99596.72
2023-03-31T22:21:17.651Z,99563.47
2023-03-31T22:23:45.502Z,99600.75
2023-03-31T22:26:13.396Z,99584.31
2023-03-31T22:28:41.292Z,99580.28
2023-03-31T22:31:09.203Z,99597.72
2023-03-31T22:33:36.937Z,99602.38
2023-03-31T22:36:04.802Z,99606.94
2023-03-31T22:38:32.268Z,99608.09
2023-03-31T22:40:59.894Z,99608.41
2023-03-31T22:43:27.790Z,99611.75
2023-03-31T22:45:55.546Z,99607.91
2023-03-31T22:48:23.162Z,99608.91
2023-03-31T22:50:50.694Z,99615.25
2023-03-31T22:53:18.222Z,99625.13
2023-03-31T22:55:53.941Z,99619.94
2023-03-31T22:58:22.857Z,99591.09
2023-03-31T23:00:58.405Z,99618.38
2023-03-31T23:03:26.509Z,99617.75
2023-03-31T23:05:54.193Z,99616.84
2023-03-31T23:08:22.126Z,99610.22
2023-03-31T23:11:00.806Z,99594.47
2023-03-31T23:13:29.789Z,99605.66
2023-03-31T23:16:02.718Z,99597.34
2023-03-31T23:18:30.533Z,99592.47
2023-03-31T23:20:58.123Z,99590.94
2023-03-31T23:23:25.994Z,99584.25
2023-03-31T23:25:53.514Z,99591.09
2023-03-31T23:28:21.065Z,99548.41
2023-03-31T23:30:54.005Z,99589.09
2023-03-31T23:33:21.564Z,99581.25
2023-03-31T23:35:49.790Z,99596.47
2023-03-31T23:38:17.406Z,99579.22
2023-03-31T23:40:46.521Z,99572.25
2023-03-31T23:43:14.789Z,99572.69
2023-03-31T23:45:43.241Z,99580.75
2023-03-31T23:48:11.018Z,99557.75
2023-03-31T23:50:38.726Z,99573.19
2023-03-31T23:53:07.329Z,99572.25
2023-03-31T23:55:35.182Z,99563.59
2023-03-31T23:58:03.503Z,99578.66
